createdAt,value
2023-04-28T00:02:31.303Z,100290.59
2023-04-28T00:05:21.841Z,100291.28
2023-04-28T00:07:57.795Z,100296.31
2023-04-28T00:10:43.514Z,100289.31
2023-04-28T00:13:21.890Z,100291.38
2023-04-28T00:16:07.820Z,100292.28
2023-04-28T00:18:34.625Z,100292.19
2023-04-28T00:21:13.142Z,100291.63
2023-04-28T00:23:47.863Z,100284.63
2023-04-28T00:26:17.744Z,100288.53
2023-04-28T00:28:53.457Z,100290.50
2023-04-28T00:31:35.634Z,100284.03
2023-04-28T00:34:19.729Z,100292.63
2023-04-28T00:37:03.782Z,100296.97
2023-04-28T00:39:47.619Z,100295.91
2023-04-28T00:42:20.288Z,100291.41
2023-04-28T00:44:52.927Z,100291.00
2023-04-28T00:47:33.078Z,100298.22
2023-04-28T00:50:17.251Z,100297.88
2023-04-28T00:52:51.498Z,100300.81
2023-04-28T00:55:25.020Z,100289.03
2023-04-28T00:57:56.812Z,100297.16
2023-04-28T01:00:35.011Z,100299.13
2023-04-28T01:03:08.178Z,100300.97
2023-04-28T01:05:53.865Z,100298.91
2023-04-28T01:08:42.753Z,100310.81
2023-04-28T01:11:26.972Z,100317.13
2023-04-28T01:14:07.189Z,100304.78
2023-04-28T01:16:49.723Z,100300.03
2023-04-28T01:19:28.810Z,100306.19
2023-04-28T01:22:08.143Z,100304.78
2023-04-28T01:24:49.975Z,100312.22
2023-04-28T01:27:25.342Z,100315.03
2023-04-28T01:30:00.167Z,100320.91
2023-04-28T01:32:35.413Z,100318.16
2023-04-28T01:35:11.378Z,100324.31
2023-04-28T01:37:53.638Z,100311.44
2023-04-28T01:40:29.370Z,100307.34
2023-04-28T01:43:07.770Z,100305.38
2023-04-28T01:45:57.337Z,100308.03
2023-04-28T01:48:34.799Z,100304.84
2023-04-28T01:51:26.152Z,100301.19
2023-04-28T01:54:05.872Z,100288.00
2023-04-28T01:56:44.767Z,100301.06
2023-04-28T01:59:23.893Z,100304.88
2023-04-28T02:02:03.974Z,100302.19
2023-04-28T02:04:41.255Z,100304.28
2023-04-28T02:07:31.965Z,100304.88
2023-04-28T02:10:06.154Z,100310.63
2023-04-28T02:12:42.943Z,100311.44
2023-04-28T02:15:10.362Z,100313.00
2023-04-28T02:17:56.784Z,100320.69
2023-04-28T02:20:33.375Z,100317.91
2023-04-28T02:23:16.700Z,100320.72
2023-04-28T02:25:49.018Z,100321.84
2023-04-28T02:28:18.685Z,100321.16
2023-04-28T02:30:58.935Z,100318.75
2023-04-28T02:33:29.749Z,100319.19
2023-04-28T02:36:19.038Z,100325.19
2023-04-28T02:39:00.640Z,100325.88
2023-04-28T02:41:34.743Z,100323.41
2023-04-28T02:44:07.788Z,100334.16
2023-04-28T02:46:37.063Z,100330.38
2023-04-28T02:49:04.722Z,100325.50
2023-04-28T02:51:34.642Z,100325.06
2023-04-28T02:54:09.598Z,100333.91
2023-04-28T02:56:44.999Z,100328.44
2023-04-28T02:59:21.496Z,100324.81
2023-04-28T03:01:54.851Z,100327.31
2023-04-28T03:04:30.848Z,100332.94
2023-04-28T03:07:00.894Z,100324.53
2023-04-28T03:09:31.344Z,100322.88
2023-04-28T03:12:12.172Z,100324.81
2023-04-28T03:14:47.249Z,100327.59
2023-04-28T03:17:20.851Z,100339.66
2023-04-28T03:19:59.272Z,100328.03
2023-04-28T03:22:32.193Z,100339.50
2023-04-28T03:25:07.654Z,100341.06
2023-04-28T03:27:49.494Z,100344.69
2023-04-28T03:30:32.868Z,100338.53
2023-04-28T03:33:05.834Z,100337.69
2023-04-28T03:35:36.016Z,100340.34
2023-04-28T03:38:02.953Z,100336.56
2023-04-28T03:40:37.085Z,100336.88
2023-04-28T03:43:24.728Z,100330.41
2023-04-28T03:46:35.643Z,100332.78
2023-04-28T03:49:11.813Z,100336.03
2023-04-28T03:51:50.154Z,100343.31
2023-04-28T03:54:23.618Z,100334.91
2023-04-28T03:56:51.246Z,100346.63
2023-04-28T03:59:35.285Z,100341.91
2023-04-28T04:02:10.628Z,100345.38
2023-04-28T04:04:45.653Z,100345.09
2023-04-28T04:07:25.692Z,100353.63
2023-04-28T04:10:04.646Z,100342.56
2023-04-28T04:12:42.026Z,100346.47
2023-04-28T04:15:20.730Z,100345.81
2023-04-28T04:17:58.076Z,100350.00
2023-04-28T04:20:38.529Z,100342.69
2023-04-28T04:23:09.551Z,100336.66
2023-04-28T04:25:49.680Z,100340.41
2023-04-28T04:28:23.052Z,100346.13
2023-04-28T04:30:55.249Z,100348.31
2023-04-28T04:33:30.033Z,100363.41
2023-04-28T04:36:08.309Z,100352.84
2023-04-28T04:38:47.509Z,100357.28
2023-04-28T04:41:22.127Z,100359.47
2023-04-28T04:43:53.615Z,100355.28
2023-04-28T04:46:35.478Z,100356.81
2023-04-28T04:49:08.345Z,100351.81
2023-04-28T04:51:43.690Z,100358.75
2023-04-28T04:54:10.846Z,100352.31
2023-04-28T04:56:49.305Z,100359.06
2023-04-28T04:59:32.702Z,100358.06
2023-04-28T05:02:10.667Z,100361.91
2023-04-28T05:04:46.754Z,100361.81
2023-04-28T05:07:27.943Z,100359.34
2023-04-28T05:09:55.704Z,100350.28
2023-04-28T05:12:38.844Z,100357.53
2023-04-28T05:15:11.866Z,100353.31
2023-04-28T05:17:57.842Z,100367.53
2023-04-28T05:20:28.067Z,100372.38
2023-04-28T05:23:12.703Z,100375.94
2023-04-28T05:25:48.760Z,100376.06
2023-04-28T05:28:22.176Z,100377.03
2023-04-28T05:31:09.768Z,100379.53
2023-04-28T05:33:44.843Z,100376.75
2023-04-28T05:36:18.734Z,100384.69
2023-04-28T05:38:52.163Z,100382.63
2023-04-28T05:41:33.478Z,100387.56
2023-04-28T05:44:14.566Z,100383.97
2023-04-28T05:46:44.137Z,100392.59
2023-04-28T05:49:19.421Z,100385.81
2023-04-28T05:52:00.012Z,100389.38
2023-04-28T05:54:34.747Z,100382.09
2023-04-28T05:57:11.645Z,100384.47
2023-04-28T05:59:45.394Z,100385.06
2023-04-28T06:02:17.053Z,100385.72
2023-04-28T06:04:52.144Z,100388.69
2023-04-28T06:07:36.291Z,100386.53
2023-04-28T06:10:06.492Z,100384.34
2023-04-28T06:12:52.917Z,100382.28
2023-04-28T06:15:28.282Z,100382.09
2023-04-28T06:18:06.199Z,100386.09
2023-04-28T06:20:39.317Z,100385.31
2023-04-28T06:23:14.858Z,100387.13
2023-04-28T06:26:08.532Z,100378.94
2023-04-28T06:28:58.929Z,100388.72
2023-04-28T06:31:34.414Z,100377.53
2023-04-28T06:34:15.939Z,100384.97
2023-04-28T06:36:51.614Z,100382.91
2023-04-28T06:39:24.726Z,100390.97
2023-04-28T06:42:02.375Z,100393.00
2023-04-28T06:44:36.520Z,100393.09
2023-04-28T06:47:12.098Z,100401.97
2023-04-28T06:49:54.207Z,100398.59
2023-04-28T06:52:38.648Z,100392.91
2023-04-28T06:55:15.241Z,100392.91
2023-04-28T06:57:53.957Z,100388.38
2023-04-28T07:00:28.957Z,100381.41
2023-04-28T07:03:06.927Z,100393.28
2023-04-28T07:05:47.409Z,100395.75
2023-04-28T07:08:27.766Z,100391.09
2023-04-28T07:11:08.428Z,100392.19
2023-04-28T07:13:49.387Z,100386.72
2023-04-28T07:16:30.798Z,100380.44
2023-04-28T07:19:09.671Z,100386.69
2023-04-28T07:21:46.794Z,100383.75
2023-04-28T07:24:23.642Z,100375.84
2023-04-28T07:27:03.907Z,100368.38
2023-04-28T07:29:42.319Z,100371.53
2023-04-28T07:32:21.706Z,100368.72
2023-04-28T07:35:00.604Z,100371.78
2023-04-28T07:37:40.965Z,100365.31
2023-04-28T07:40:15.961Z,100367.47
2023-04-28T07:42:54.422Z,100371.75
2023-04-28T07:45:32.635Z,100366.53
2023-04-28T07:48:13.593Z,100373.56
2023-04-28T07:50:48.389Z,100363.72
2023-04-28T07:53:20.113Z,100368.06
2023-04-28T07:55:55.864Z,100364.69
2023-04-28T07:58:28.254Z,100364.22
2023-04-28T08:01:05.959Z,100366.22
2023-04-28T08:03:47.003Z,100350.22
2023-04-28T08:06:25.077Z,100348.69
2023-04-28T08:09:09.225Z,100346.38
2023-04-28T08:11:49.126Z,100348.81
2023-04-28T08:14:26.710Z,100351.72
2023-04-28T08:17:05.790Z,100335.16
2023-04-28T08:19:45.000Z,100331.72
2023-04-28T08:22:26.256Z,100326.53
2023-04-28T08:25:04.572Z,100320.63
2023-04-28T08:27:45.347Z,100322.81
2023-04-28T08:30:21.688Z,100326.78
2023-04-28T08:32:57.484Z,100324.41
2023-04-28T08:35:30.020Z,100323.47
2023-04-28T08:38:11.188Z,100322.41
2023-04-28T08:40:55.294Z,100320.56
2023-04-28T08:43:35.800Z,100309.66
2023-04-28T08:46:17.422Z,100310.06
2023-04-28T08:49:01.894Z,100305.41
2023-04-28T08:51:50.513Z,100306.91
2023-04-28T08:54:36.491Z,100301.81
2023-04-28T08:57:13.722Z,100304.34
2023-04-28T08:59:46.916Z,100298.78
2023-04-28T09:02:27.206Z,100300.34
2023-04-28T09:05:00.890Z,100293.31
2023-04-28T09:07:55.096Z,100291.94
2023-04-28T09:10:30.089Z,100287.19
2023-04-28T09:13:08.009Z,100291.03
2023-04-28T09:15:51.060Z,100288.94
2023-04-28T09:18:33.680Z,100287.91
2023-04-28T09:21:13.462Z,100291.78
2023-04-28T09:23:54.826Z,100292.09
2023-04-28T09:26:54.826Z,100270.00
2023-04-28T09:29:35.076Z,100281.31
2023-04-28T09:32:23.339Z,100279.56
2023-04-28T09:35:02.702Z,100277.91
2023-04-28T09:37:46.458Z,100276.44
2023-04-28T09:40:34.570Z,100269.97
2023-04-28T09:43:35.568Z,100277.03
2023-04-28T09:46:11.038Z,100272.59
2023-04-28T09:48:49.089Z,100263.25
2023-04-28T09:51:32.270Z,100254.25
2023-04-28T09:54:13.045Z,100250.09
2023-04-28T09:56:50.700Z,100256.72
2023-04-28T09:59:37.571Z,100258.19
2023-04-28T10:02:42.216Z,100258.84
2023-04-28T10:05:13.357Z,100253.44
2023-04-28T10:07:51.646Z,100253.69
2023-04-28T10:10:25.281Z,100244.56
2023-04-28T10:13:04.470Z,100239.50
2023-04-28T10:15:49.501Z,100233.59
2023-04-28T10:18:29.450Z,100234.22
2023-04-28T10:21:07.765Z,100234.53
2023-04-28T10:24:08.825Z,100222.97
2023-04-28T10:27:11.519Z,100223.00
2023-04-28T10:29:47.729Z,100220.22
2023-04-28T10:32:33.027Z,100228.94
2023-04-28T10:35:38.382Z,100224.44
2023-04-28T10:38:23.865Z,100199.47
2023-04-28T10:41:11.871Z,100191.88
2023-04-28T10:43:55.683Z,100180.91
2023-04-28T10:47:10.409Z,100178.78
2023-04-28T10:50:08.126Z,100171.22
2023-04-28T10:52:53.902Z,100178.91
2023-04-28T10:55:39.455Z,100172.66
2023-04-28T10:58:33.567Z,100163.38
2023-04-28T11:01:25.322Z,100166.41
2023-04-28T11:04:11.564Z,100173.00
2023-04-28T11:07:14.230Z,100167.47
2023-04-28T11:09:52.065Z,100170.81
2023-04-28T11:12:21.428Z,100161.88
2023-04-28T11:14:53.086Z,100166.38
2023-04-28T11:17:46.012Z,100149.66
2023-04-28T11:20:29.850Z,100146.50
2023-04-28T11:23:16.963Z,100148.81
2023-04-28T11:26:00.350Z,100147.19
2023-04-28T11:28:36.677Z,100151.59
2023-04-28T11:31:26.472Z,100146.63
2023-04-28T11:34:05.182Z,100147.63
2023-04-28T11:36:41.160Z,100148.75
2023-04-28T11:39:30.198Z,100148.09
2023-04-28T11:42:10.326Z,100151.56
2023-04-28T11:44:58.724Z,100146.31
2023-04-28T11:47:34.844Z,100147.72
2023-04-28T11:50:19.076Z,100132.38
2023-04-28T11:52:57.923Z,100143.59
2023-04-28T11:55:38.205Z,100136.75
2023-04-28T11:58:29.269Z,100144.91
2023-04-28T12:01:20.444Z,100140.19
2023-04-28T12:03:58.574Z,100131.00
2023-04-28T12:06:34.709Z,100127.97
2023-04-28T12:09:25.158Z,100117.47
2023-04-28T12:12:05.538Z,100122.19
2023-04-28T12:15:04.404Z,100113.69
2023-04-28T12:17:47.251Z,100113.69
2023-04-28T12:20:49.257Z,100098.91
2023-04-28T12:23:39.942Z,100097.22
2023-04-28T12:26:13.922Z,100094.69
2023-04-28T12:28:57.139Z,100094.19
2023-04-28T12:31:38.167Z,100090.09
2023-04-28T12:34:13.923Z,100095.03
2023-04-28T12:36:57.692Z,100083.50
2023-04-28T12:39:33.382Z,100082.94
2023-04-28T12:42:14.611Z,100080.41
2023-04-28T12:44:50.660Z,100072.97
2023-04-28T12:47:28.196Z,100064.81
2023-04-28T12:50:03.552Z,100046.78
2023-04-28T12:52:43.927Z,100049.47
2023-04-28T12:55:25.785Z,100048.03
2023-04-28T12:58:04.696Z,100023.66
2023-04-28T13:00:47.196Z,100018.78
2023-04-28T13:03:31.575Z,100011.84
2023-04-28T13:06:13.414Z,100007.16
2023-04-28T13:08:55.711Z,100004.44
2023-04-28T13:11:38.296Z,99997.91
2023-04-28T13:14:14.028Z,99997.94
2023-04-28T13:16:51.131Z,100009.97
2023-04-28T13:19:29.771Z,99999.78
2023-04-28T13:22:13.067Z,100006.81
2023-04-28T13:24:51.861Z,100007.16
2023-04-28T13:27:33.523Z,100005.00
2023-04-28T13:30:17.392Z,100009.41
2023-04-28T13:32:57.705Z,100014.09
2023-04-28T13:35:38.931Z,100007.28
2023-04-28T13:38:25.948Z,100008.94
2023-04-28T13:41:07.282Z,100002.31
2023-04-28T13:43:44.840Z,100011.88
2023-04-28T13:46:30.022Z,100003.59
2023-04-28T13:49:07.959Z,99990.75
2023-04-28T13:51:45.861Z,99975.94
2023-04-28T13:54:23.728Z,99969.94
2023-04-28T13:57:03.856Z,99968.84
2023-04-28T13:59:47.825Z,99971.03
2023-04-28T14:02:31.997Z,99958.41
2023-04-28T14:05:04.947Z,99954.00
2023-04-28T14:07:40.847Z,99963.22
2023-04-28T14:10:19.674Z,99965.97
2023-04-28T14:12:52.083Z,99965.63
2023-04-28T14:15:32.585Z,99975.81
2023-04-28T14:18:10.225Z,99966.03
2023-04-28T14:20:54.725Z,99964.75
2023-04-28T14:23:27.199Z,99957.19
2023-04-28T14:26:18.922Z,99958.88
2023-04-28T14:28:59.494Z,99955.59
2023-04-28T14:31:59.842Z,99955.28
2023-04-28T14:34:49.603Z,99952.28
2023-04-28T14:37:36.006Z,99951.94
2023-04-28T14:40:14.620Z,99950.28
2023-04-28T14:42:49.836Z,99948.88
2023-04-28T14:45:34.644Z,99954.81
2023-04-28T14:48:16.172Z,99950.19
2023-04-28T14:50:51.461Z,99955.84
2023-04-28T14:53:34.954Z,99954.38
2023-04-28T14:56:18.969Z,99941.84
2023-04-28T14:58:57.457Z,99942.94
2023-04-28T15:01:43.865Z,99934.94
2023-04-28T15:04:18.855Z,99935.88
2023-04-28T15:06:49.060Z,99929.34
2023-04-28T15:09:29.844Z,99926.75
2023-04-28T15:12:05.326Z,99930.56
2023-04-28T15:14:44.125Z,99928.16
2023-04-28T15:17:30.839Z,99923.97
2023-04-28T15:19:57.910Z,99916.03
2023-04-28T15:22:27.488Z,99928.69
2023-04-28T15:25:05.208Z,99924.44
2023-04-28T15:27:45.037Z,99923.75
2023-04-28T15:30:20.380Z,99914.13
2023-04-28T15:33:07.137Z,99915.47
2023-04-28T15:35:39.261Z,99916.16
2023-04-28T15:38:18.013Z,99914.00
2023-04-28T15:40:53.390Z,99911.50
2023-04-28T15:43:33.136Z,99909.91
2023-04-28T15:46:11.642Z,99902.28
2023-04-28T15:48:43.991Z,99893.66
2023-04-28T15:51:20.000Z,99879.03
2023-04-28T15:53:55.975Z,99891.34
2023-04-28T15:56:31.834Z,99884.13
2023-04-28T15:59:14.868Z,99885.84
2023-04-28T16:01:47.688Z,99880.03
2023-04-28T16:04:25.908Z,99883.38
2023-04-28T16:06:55.887Z,99877.59
2023-04-28T16:09:34.652Z,99879.66
2023-04-28T16:12:12.777Z,99867.34
2023-04-28T16:15:01.681Z,99865.41
2023-04-28T16:17:38.782Z,99868.69
2023-04-28T16:20:20.659Z,99868.34
2023-04-28T16:23:00.933Z,99867.47
2023-04-28T16:25:36.571Z,99868.09
2023-04-28T16:28:20.215Z,99864.16
2023-04-28T16:30:59.780Z,99863.47
2023-04-28T16:33:40.954Z,99853.88
2023-04-28T16:36:16.883Z,99853.00
2023-04-28T16:38:52.672Z,99845.81
2023-04-28T16:41:31.652Z,99833.56
2023-04-28T16:44:00.182Z,99839.31
2023-04-28T16:46:37.949Z,99829.44
2023-04-28T16:49:12.998Z,99821.13
2023-04-28T16:51:59.818Z,99820.63
2023-04-28T16:54:43.676Z,99818.19
2023-04-28T16:57:21.568Z,99812.97
2023-04-28T17:00:02.102Z,99809.38
2023-04-28T17:02:44.310Z,99809.91
2023-04-28T17:05:19.011Z,99806.22
2023-04-28T17:07:57.688Z,99792.50
2023-04-28T17:10:35.787Z,99801.13
2023-04-28T17:13:16.661Z,99797.50
2023-04-28T17:15:57.876Z,99797.84
2023-04-28T17:18:31.244Z,99782.34
2023-04-28T17:21:11.903Z,99785.22
2023-04-28T17:23:51.329Z,99790.34
2023-04-28T17:26:31.997Z,99796.28
2023-04-28T17:29:07.807Z,99800.47
2023-04-28T17:31:45.514Z,99790.84
2023-04-28T17:34:27.028Z,99800.50
2023-04-28T17:37:01.888Z,99796.94
2023-04-28T17:39:32.826Z,99778.66
2023-04-28T17:42:25.333Z,99773.34
2023-04-28T17:45:01.304Z,99765.13
2023-04-28T17:47:53.152Z,99765.38
2023-04-28T17:50:28.928Z,99772.69
2023-04-28T17:53:06.764Z,99774.19
2023-04-28T17:55:42.877Z,99785.28
2023-04-28T17:58:23.667Z,99790.63
2023-04-28T18:01:11.180Z,99779.31
2023-04-28T18:03:51.407Z,99788.09
2023-04-28T18:06:32.262Z,99784.78
2023-04-28T18:09:16.053Z,99787.44
2023-04-28T18:11:58.774Z,99792.66
2023-04-28T18:14:44.380Z,99799.66
2023-04-28T18:17:23.339Z,99797.88
2023-04-28T18:20:11.638Z,99796.31
2023-04-28T18:22:49.834Z,99792.78
2023-04-28T18:25:28.422Z,99792.94
2023-04-28T18:28:22.007Z,99794.84
2023-04-28T18:31:00.199Z,99802.50
2023-04-28T18:33:40.652Z,99794.03
2023-04-28T18:36:26.669Z,99794.03
2023-04-28T18:39:07.916Z,99794.16
2023-04-28T18:41:47.145Z,99793.38
2023-04-28T18:44:31.174Z,99794.03
2023-04-28T18:47:06.959Z,99803.72
2023-04-28T18:49:45.723Z,99799.34
2023-04-28T18:52:27.087Z,99801.75
2023-04-28T18:55:03.735Z,99802.94
2023-04-28T18:57:52.761Z,99795.72
2023-04-28T19:00:38.005Z,99792.41
2023-04-28T19:03:16.760Z,99804.44
2023-04-28T19:05:56.637Z,99806.47
2023-04-28T19:08:32.865Z,99805.00
2023-04-28T19:11:13.964Z,99813.19
2023-04-28T19:13:45.719Z,99809.41
2023-04-28T19:16:26.323Z,99814.00
2023-04-28T19:19:02.530Z,99804.53
2023-04-28T19:21:44.066Z,99803.94
2023-04-28T19:24:24.467Z,99808.91
2023-04-28T19:26:58.719Z,99806.06
2023-04-28T19:29:37.009Z,99805.25
2023-04-28T19:32:12.530Z,99809.03
2023-04-28T19:34:56.410Z,99810.06
2023-04-28T19:37:34.233Z,99811.25
2023-04-28T19:40:15.195Z,99812.91
2023-04-28T19:42:56.684Z,99806.78
2023-04-28T19:45:35.170Z,99806.28
2023-04-28T19:48:20.756Z,99805.56
2023-04-28T19:50:58.210Z,99792.75
2023-04-28T19:53:40.746Z,99798.25
2023-04-28T19:56:18.775Z,99792.75
2023-04-28T19:58:57.451Z,99792.75
2023-04-28T20:04:14.224Z,99786.22
2023-04-28T20:06:56.306Z,99782.47
2023-04-28T20:09:33.170Z,99781.28
2023-04-28T20:12:10.597Z,99790.03
2023-04-28T20:14:41.619Z,99788.38
2023-04-28T20:17:16.351Z,99779.06
2023-04-28T20:20:05.294Z,99775.63
2023-04-28T20:22:48.950Z,99778.19
2023-04-28T20:25:31.142Z,99773.25
2023-04-28T20:28:08.760Z,99775.84
2023-04-28T20:30:43.615Z,99778.44
2023-04-28T20:33:27.356Z,99777.25
2023-04-28T20:35:59.769Z,99782.81
2023-04-28T20:38:32.435Z,99777.25
2023-04-28T20:41:10.535Z,99784.78
2023-04-28T20:43:55.178Z,99779.66
2023-04-28T20:46:32.874Z,99788.25
2023-04-28T20:49:11.000Z,99789.41
2023-04-28T20:51:52.744Z,99780.88
2023-04-28T20:54:32.682Z,99781.91
2023-04-28T20:57:04.091Z,99776.16
2023-04-28T20:59:47.654Z,99775.91
2023-04-28T21:02:29.110Z,99773.03
2023-04-28T21:05:05.331Z,99786.44
2023-04-28T21:07:40.429Z,99780.75
2023-04-28T21:10:16.973Z,99786.25
2023-04-28T21:12:58.229Z,99778.72
2023-04-28T21:15:48.083Z,99777.16
2023-04-28T21:18:28.269Z,99775.72
2023-04-28T21:21:03.626Z,99770.03
2023-04-28T21:23:41.351Z,99782.72
2023-04-28T21:26:24.014Z,99770.13
2023-04-28T21:28:57.613Z,99768.91
2023-04-28T21:31:35.766Z,99774.56
2023-04-28T21:34:13.379Z,99784.41
2023-04-28T21:36:52.245Z,99772.72
2023-04-28T21:39:32.623Z,99786.91
2023-04-28T21:42:08.151Z,99786.22
2023-04-28T21:44:41.013Z,99790.00
2023-04-28T21:47:16.311Z,99780.00
2023-04-28T21:49:46.494Z,99784.72
2023-04-28T21:52:19.663Z,99778.72
2023-04-28T21:54:55.058Z,99777.75
2023-04-28T21:57:35.807Z,99772.03
2023-04-28T22:00:13.663Z,99777.19
2023-04-28T22:02:51.763Z,99771.56
2023-04-28T22:05:37.116Z,99775.59
2023-04-28T22:08:19.689Z,99777.28
2023-04-28T22:10:55.149Z,99776.84
2023-04-28T22:13:28.780Z,99774.03
2023-04-28T22:16:03.745Z,99778.78
2023-04-28T22:18:33.802Z,99776.53
2023-04-28T22:21:13.969Z,99771.06
2023-04-28T22:23:53.712Z,99771.25
2023-04-28T22:26:38.080Z,99763.59
2023-04-28T22:29:10.546Z,99770.25
2023-04-28T22:31:46.701Z,99764.56
2023-04-28T22:34:34.810Z,99769.84
2023-04-28T22:37:18.622Z,99762.03
2023-04-28T22:39:58.023Z,99754.72
2023-04-28T22:42:40.796Z,99752.31
2023-04-28T22:45:24.424Z,99749.31
2023-04-28T22:47:59.702Z,99747.97
2023-04-28T22:50:37.124Z,99742.88
2023-04-28T22:53:10.036Z,99739.78
2023-04-28T22:55:45.839Z,99744.66
2023-04-28T22:58:20.756Z,99745.88
2023-04-28T23:00:58.105Z,99749.63
2023-04-28T23:03:38.450Z,99745.03
2023-04-28T23:06:27.870Z,99744.34
2023-04-28T23:09:06.661Z,99739.88
2023-04-28T23:11:42.185Z,99744.22
2023-04-28T23:14:22.805Z,99743.19
2023-04-28T23:16:54.834Z,99745.78
2023-04-28T23:19:32.800Z,99740.84
2023-04-28T23:22:17.509Z,99741.59
2023-04-28T23:24:57.585Z,99730.25
2023-04-28T23:27:27.661Z,99734.91
2023-04-28T23:30:05.026Z,99733.03
2023-04-28T23:32:40.835Z,99726.56
2023-04-28T23:35:17.592Z,99732.56
2023-04-28T23:37:53.517Z,99727.16
2023-04-28T23:40:23.366Z,99729.03
2023-04-28T23:42:55.873Z,99723.03
2023-04-28T23:45:36.737Z,99723.59
2023-04-28T23:48:10.827Z,99718.78
2023-04-28T23:50:48.338Z,99722.63
2023-04-28T23:53:24.725Z,99720.84
2023-04-28T23:56:05.572Z,99710.84
2023-04-28T23:58:46.538Z,99705.88
